createdAt,value
2018-02-24T00:00:05.206Z,4.00
2018-02-24T00:01:05.161Z,4.00
2018-02-24T00:02:05.137Z,4.00
2018-02-24T00:03:05.104Z,4.00
2018-02-24T00:04:05.080Z,4.00
2018-02-24T00:05:05.045Z,4.00
2018-02-24T00:06:05.017Z,4.00
2018-02-24T00:07:04.987Z,4.00
2018-02-24T00:08:04.969Z,4.00
2018-02-24T00:09:04.936Z,4.00
2018-02-24T00:10:04.925Z,4.00
2018-02-24T00:11:04.872Z,4.00
2018-02-24T00:12:04.901Z,4.00
2018-02-24T00:13:04.817Z,4.00
2018-02-24T00:14:04.789Z,4.00
2018-02-24T00:15:04.759Z,4.00
2018-02-24T00:16:04.731Z,4.00
2018-02-24T00:17:04.701Z,4.00
2018-02-24T00:18:04.676Z,4.00
2018-02-24T00:19:04.646Z,4.00
2018-02-24T00:20:04.620Z,4.00
2018-02-24T00:21:04.589Z,4.00
2018-02-24T00:22:04.586Z,4.00
2018-02-24T00:23:04.531Z,4.00
2018-02-24T00:24:04.505Z,4.00
2018-02-24T00:25:04.491Z,4.00
2018-02-24T00:26:04.447Z,4.00
2018-02-24T00:27:04.422Z,4.00
2018-02-24T00:28:04.494Z,4.00
2018-02-24T00:29:04.362Z,4.00
2018-02-24T00:30:04.335Z,4.00
2018-02-24T00:31:04.302Z,4.00
2018-02-24T00:32:04.274Z,4.00
2018-02-24T00:33:04.250Z,4.00
2018-02-24T00:34:04.218Z,4.00
2018-02-24T00:35:04.191Z,4.00
2018-02-24T00:36:04.159Z,4.00
2018-02-24T00:37:04.137Z,4.00
2018-02-24T00:38:04.104Z,4.00
2018-02-24T00:39:04.076Z,4.00
2018-02-24T00:40:04.046Z,4.00
2018-02-24T00:41:04.021Z,4.00
2018-02-24T00:42:03.992Z,4.00
2018-02-24T00:43:03.961Z,4.00
2018-02-24T00:44:03.934Z,4.00
2018-02-24T00:45:03.903Z,4.00
2018-02-24T00:46:03.875Z,4.00
2018-02-24T00:47:03.845Z,4.00
2018-02-24T00:48:03.828Z,4.00
2018-02-24T00:49:03.793Z,4.00
2018-02-24T00:50:03.762Z,4.00
2018-02-24T00:51:03.735Z,4.00
2018-02-24T00:52:03.708Z,4.00
2018-02-24T00:53:03.713Z,4.00
2018-02-24T00:54:03.646Z,4.00
2018-02-24T00:55:03.623Z,4.00
2018-02-24T00:56:03.592Z,4.00
2018-02-24T00:57:03.564Z,4.00
2018-02-24T00:58:03.533Z,4.00
2018-02-24T00:59:03.515Z,4.00
2018-02-24T01:00:03.476Z,4.00
2018-02-24T01:01:03.452Z,4.00
2018-02-24T01:02:03.419Z,4.00
2018-02-24T01:03:03.390Z,4.00
2018-02-24T01:04:03.498Z,4.00
2018-02-24T01:05:03.331Z,4.00
2018-02-24T01:06:03.303Z,4.00
2018-02-24T01:07:03.375Z,4.00
2018-02-24T01:08:03.253Z,4.00
2018-02-24T01:09:03.221Z,4.00
2018-02-24T01:10:03.291Z,4.00
2018-02-24T01:11:03.160Z,4.00
2018-02-24T01:12:03.143Z,4.00
2018-02-24T01:13:03.163Z,4.00
2018-02-24T01:14:03.076Z,4.00
2018-02-24T01:15:03.044Z,4.00
2018-02-24T01:16:03.020Z,4.00
2018-02-24T01:17:02.999Z,4.00
2018-02-24T01:18:02.962Z,4.00
2018-02-24T01:19:02.938Z,4.00
2018-02-24T01:20:02.944Z,4.00
2018-02-24T01:21:02.874Z,4.00
2018-02-24T01:22:02.847Z,4.00
2018-02-24T01:23:02.818Z,4.00
2018-02-24T01:24:02.788Z,4.00
2018-02-24T01:25:02.760Z,4.00
2018-02-24T01:26:02.730Z,4.00
2018-02-24T01:27:02.708Z,4.00
2018-02-24T01:28:02.673Z,4.00
2018-02-24T01:29:02.655Z,4.00
2018-02-24T01:30:02.617Z,4.00
2018-02-24T01:31:02.598Z,4.00
2018-02-24T01:32:02.559Z,4.00
2018-02-24T01:33:02.528Z,4.00
2018-02-24T01:34:02.501Z,4.00
2018-02-24T01:35:02.472Z,4.00
2018-02-24T01:36:02.447Z,4.00
2018-02-24T01:37:02.418Z,4.00
2018-02-24T01:38:02.393Z,4.00
2018-02-24T01:39:02.362Z,4.00
2018-02-24T01:40:02.328Z,4.00
2018-02-24T01:41:02.299Z,4.00
2018-02-24T01:42:02.269Z,4.00
2018-02-24T01:43:02.243Z,4.00
2018-02-24T01:44:02.216Z,4.00
2018-02-24T01:45:02.185Z,4.00
2018-02-24T01:46:02.155Z,4.00
2018-02-24T01:47:02.124Z,4.00
2018-02-24T01:48:02.097Z,4.00
2018-02-24T01:49:02.157Z,4.00
2018-02-24T01:50:02.041Z,4.00
2018-02-24T01:51:02.014Z,4.00
2018-02-24T01:52:02.058Z,4.00
2018-02-24T01:53:01.955Z,4.00
2018-02-24T01:54:01.923Z,4.00
2018-02-24T01:55:01.956Z,4.00
2018-02-24T01:56:01.871Z,4.00
2018-02-24T01:57:01.839Z,4.00
2018-02-24T01:58:01.811Z,4.00
2018-02-24T01:59:01.779Z,4.00
2018-02-24T02:00:01.749Z,4.00
2018-02-24T02:01:01.725Z,4.00
2018-02-24T02:02:01.693Z,4.00
2018-02-24T02:03:01.670Z,4.00
2018-02-24T02:04:01.633Z,4.00
2018-02-24T02:05:01.608Z,4.00
2018-02-24T02:06:01.579Z,4.00
2018-02-24T02:07:01.547Z,4.00
2018-02-24T02:08:01.524Z,4.00
2018-02-24T02:09:01.492Z,4.00
2018-02-24T02:10:01.471Z,4.00
2018-02-24T02:11:01.434Z,4.00
2018-02-24T02:12:01.402Z,4.00
2018-02-24T02:13:01.373Z,4.00
2018-02-24T02:14:01.343Z,4.00
2018-02-24T02:15:01.316Z,4.00
2018-02-24T02:16:01.286Z,4.00
2018-02-24T02:17:01.264Z,4.00
2018-02-24T02:18:01.237Z,4.00
2018-02-24T02:19:01.209Z,4.00
2018-02-24T02:20:01.197Z,4.00
2018-02-24T02:21:01.144Z,4.00
2018-02-24T02:22:01.111Z,4.00
2018-02-24T02:23:01.082Z,4.00
2018-02-24T02:24:01.052Z,4.00
2018-02-24T02:25:01.025Z,4.00
2018-02-24T02:26:00.995Z,4.00
2018-02-24T02:27:00.964Z,4.00
2018-02-24T02:28:00.939Z,4.00
2018-02-24T02:29:00.909Z,4.00
2018-02-24T02:30:00.880Z,4.00
2018-02-24T02:31:00.853Z,4.00
2018-02-24T02:32:00.821Z,4.00
2018-02-24T02:33:00.792Z,4.00
2018-02-24T02:34:00.811Z,4.00
2018-02-24T02:35:00.734Z,4.00
2018-02-24T02:36:00.704Z,4.00
2018-02-24T02:37:00.699Z,4.00
2018-02-24T02:38:00.649Z,4.00
2018-02-24T02:39:00.618Z,4.00
2018-02-24T02:40:00.644Z,4.00
2018-02-24T02:41:00.560Z,4.00
2018-02-24T02:42:00.529Z,4.00
2018-02-24T02:43:00.503Z,4.00
2018-02-24T02:44:00.473Z,4.00
2018-02-24T02:45:00.448Z,4.00
2018-02-24T02:46:00.419Z,4.00
2018-02-24T02:47:00.386Z,4.00
2018-02-24T02:48:00.357Z,4.00
2018-02-24T02:49:00.328Z,4.00
2018-02-24T02:50:00.303Z,4.00
2018-02-24T02:51:00.269Z,4.00
2018-02-24T02:52:00.242Z,4.00
2018-02-24T02:53:00.212Z,4.00
2018-02-24T02:54:00.181Z,4.00
2018-02-24T02:55:00.155Z,4.00
2018-02-24T02:56:00.123Z,4.00
2018-02-24T02:57:00.095Z,4.00
2018-02-24T02:58:00.065Z,4.00
2018-02-24T02:59:00.039Z,4.00
2018-02-24T03:00:00.014Z,4.00
2018-02-24T03:00:59.991Z,4.00
2018-02-24T03:01:59.949Z,4.00
2018-02-24T03:02:59.920Z,4.00
2018-02-24T03:03:59.896Z,4.00
2018-02-24T03:04:59.886Z,4.00
2018-02-24T03:05:59.834Z,4.00
2018-02-24T03:06:59.807Z,4.00
2018-02-24T03:07:59.776Z,4.00
2018-02-24T03:08:59.750Z,4.00
2018-02-24T03:09:59.722Z,4.00
2018-02-24T03:10:59.688Z,4.00
2018-02-24T03:11:59.658Z,4.00
2018-02-24T03:12:59.633Z,4.00
2018-02-24T03:13:59.605Z,4.00
2018-02-24T03:14:59.574Z,4.00
2018-02-24T03:15:59.547Z,4.00
2018-02-24T03:16:59.516Z,4.00
2018-02-24T03:17:59.489Z,4.00
2018-02-24T03:18:59.539Z,4.00
2018-02-24T03:19:59.437Z,4.00
2018-02-24T03:20:59.413Z,4.00
2018-02-24T03:21:59.375Z,4.00
2018-02-24T03:22:59.348Z,4.00
2018-02-24T03:23:59.315Z,4.00
2018-02-24T03:24:59.293Z,4.00
2018-02-24T03:25:59.256Z,4.00
2018-02-24T03:26:59.228Z,4.00
2018-02-24T03:27:59.202Z,4.00
2018-02-24T03:28:59.182Z,4.00
2018-02-24T03:29:59.143Z,4.00
2018-02-24T03:30:59.113Z,4.00
2018-02-24T03:31:59.081Z,4.00
2018-02-24T03:32:59.053Z,4.00
2018-02-24T03:33:59.033Z,4.00
2018-02-24T03:34:58.995Z,4.00
2018-02-24T03:35:58.974Z,4.00
2018-02-24T03:36:58.939Z,4.00
2018-02-24T03:37:58.910Z,4.00
2018-02-24T03:38:58.880Z,4.00
2018-02-24T03:39:58.854Z,4.00
2018-02-24T03:40:58.822Z,4.00
2018-02-24T03:41:58.794Z,4.00
2018-02-24T03:42:58.763Z,4.00
2018-02-24T03:43:58.748Z,4.00
2018-02-24T03:44:58.709Z,4.00
2018-02-24T03:45:58.679Z,4.00
2018-02-24T03:46:58.701Z,4.00
2018-02-24T03:47:58.619Z,4.00
2018-02-24T03:48:58.590Z,4.00
2018-02-24T03:49:58.685Z,4.00
2018-02-24T03:50:58.534Z,4.00
2018-02-24T03:51:58.503Z,4.00
2018-02-24T03:52:58.530Z,4.00
2018-02-24T03:53:58.449Z,4.00
2018-02-24T03:54:58.418Z,4.00
2018-02-24T03:55:58.390Z,4.00
2018-02-24T03:56:58.361Z,4.00
2018-02-24T03:57:58.332Z,4.00
2018-02-24T03:58:58.301Z,4.00
2018-02-24T03:59:58.272Z,4.00
2018-02-24T04:00:58.330Z,4.00
2018-02-24T04:01:58.219Z,4.00
2018-02-24T04:02:58.188Z,4.00
2018-02-24T04:03:58.169Z,4.00
2018-02-24T04:04:58.127Z,4.00
2018-02-24T04:05:58.099Z,4.00
2018-02-24T04:06:58.072Z,4.00
2018-02-24T04:07:58.041Z,4.00
2018-02-24T04:08:58.021Z,4.00
2018-02-24T04:09:57.989Z,4.00
2018-02-24T04:10:57.957Z,4.00
2018-02-24T04:11:57.926Z,4.00
2018-02-24T04:12:57.895Z,4.00
2018-02-24T04:13:57.865Z,4.00
2018-02-24T04:14:57.838Z,4.00
2018-02-24T04:15:57.808Z,4.00
2018-02-24T04:16:57.780Z,4.00
2018-02-24T04:17:57.749Z,4.00
2018-02-24T04:18:57.719Z,4.00
2018-02-24T04:19:57.690Z,4.00
2018-02-24T04:20:57.664Z,4.00
2018-02-24T04:21:57.634Z,4.00
2018-02-24T04:22:57.604Z,4.00
2018-02-24T04:23:57.574Z,4.00
2018-02-24T04:24:57.545Z,4.00
2018-02-24T04:25:57.516Z,4.00
2018-02-24T04:26:57.485Z,4.00
2018-02-24T04:27:57.458Z,4.00
2018-02-24T04:28:57.433Z,4.00
2018-02-24T04:29:57.398Z,4.00
2018-02-24T04:30:57.367Z,4.00
2018-02-24T04:31:57.419Z,4.00
2018-02-24T04:32:57.331Z,4.00
2018-02-24T04:33:57.283Z,4.00
2018-02-24T04:34:57.282Z,4.00
2018-02-24T04:35:57.224Z,4.00
2018-02-24T04:36:57.195Z,4.00
2018-02-24T04:37:57.168Z,4.00
2018-02-24T04:38:57.137Z,4.00
2018-02-24T04:39:57.107Z,4.00
2018-02-24T04:40:57.077Z,4.00
2018-02-24T04:41:57.052Z,4.00
2018-02-24T04:42:57.017Z,4.00
2018-02-24T04:43:56.993Z,4.00
2018-02-24T04:44:56.962Z,4.00
2018-02-24T04:45:57.051Z,4.00
2018-02-24T04:46:56.907Z,4.00
2018-02-24T04:47:56.876Z,4.00
2018-02-24T04:48:56.920Z,4.00
2018-02-24T04:49:56.817Z,4.00
2018-02-24T04:50:56.786Z,4.00
2018-02-24T04:51:56.760Z,4.00
2018-02-24T04:52:56.731Z,4.00
2018-02-24T04:53:56.700Z,4.00
2018-02-24T04:54:56.670Z,4.00
2018-02-24T04:55:56.641Z,4.00
2018-02-24T04:56:56.608Z,4.00
2018-02-24T04:57:56.580Z,4.00
2018-02-24T04:58:56.550Z,4.00
2018-02-24T04:59:56.520Z,4.00
2018-02-24T05:00:56.494Z,4.00
2018-02-24T05:01:56.471Z,4.00
2018-02-24T05:02:56.433Z,4.00
2018-02-24T05:03:56.403Z,4.00
2018-02-24T05:04:56.373Z,4.00
2018-02-24T05:05:56.352Z,4.00
2018-02-24T05:06:56.314Z,4.00
2018-02-24T05:07:56.290Z,4.00
2018-02-24T05:08:56.274Z,4.00
2018-02-24T05:09:56.226Z,4.00
2018-02-24T05:10:56.200Z,4.00
2018-02-24T05:11:56.167Z,4.00
2018-02-24T05:12:56.143Z,4.00
2018-02-24T05:13:56.259Z,4.00
2018-02-24T05:14:56.080Z,4.00
2018-02-24T05:15:56.060Z,4.00
2018-02-24T05:16:56.045Z,4.00
2018-02-24T05:17:56.001Z,4.00
2018-02-24T05:18:55.962Z,4.00
2018-02-24T05:19:55.955Z,4.00
2018-02-24T05:20:55.907Z,4.00
2018-02-24T05:21:55.894Z,4.00
2018-02-24T05:22:55.899Z,4.00
2018-02-24T05:23:55.821Z,4.00
2018-02-24T05:24:55.864Z,4.00
2018-02-24T05:25:55.767Z,4.00
2018-02-24T05:26:55.728Z,4.00
2018-02-24T05:27:55.704Z,4.00
2018-02-24T05:28:55.672Z,4.00
2018-02-24T05:29:55.646Z,4.00
2018-02-24T05:30:55.615Z,4.00
2018-02-24T05:31:55.585Z,4.00
2018-02-24T05:32:55.566Z,4.00
2018-02-24T05:33:55.534Z,4.00
2018-02-24T05:34:55.495Z,4.00
2018-02-24T05:35:55.478Z,4.00
2018-02-24T05:36:55.439Z,4.00
2018-02-24T05:37:55.407Z,4.00
2018-02-24T05:38:55.378Z,4.00
2018-02-24T05:39:55.350Z,4.00
2018-02-24T05:40:55.323Z,4.00
2018-02-24T05:41:55.292Z,4.00
2018-02-24T05:42:55.264Z,4.00
2018-02-24T05:43:55.233Z,4.00
2018-02-24T05:44:55.205Z,4.00
2018-02-24T05:45:55.176Z,4.00
2018-02-24T05:46:55.148Z,4.00
2018-02-24T05:47:55.122Z,0.00
2018-02-24T05:48:55.091Z,4.00
2018-02-24T05:49:55.063Z,4.00
2018-02-24T05:50:55.036Z,4.00
2018-02-24T05:51:55.002Z,4.00
2018-02-24T05:52:54.972Z,4.00
2018-02-24T05:53:54.941Z,4.00
2018-02-24T05:54:54.911Z,8.00
2018-02-24T05:55:54.925Z,8.00
2018-02-24T05:56:54.854Z,4.00
2018-02-24T05:57:54.826Z,8.00
2018-02-24T05:58:54.935Z,8.00
2018-02-24T05:59:54.776Z,8.00
2018-02-24T06:00:54.738Z,12.00
2018-02-24T06:01:54.846Z,12.00
2018-02-24T06:02:54.683Z,16.00
2018-02-24T06:03:54.649Z,20.00
2018-02-24T06:04:54.626Z,20.00
2018-02-24T06:05:54.592Z,24.00
2018-02-24T06:06:54.559Z,24.00
2018-02-24T06:07:54.534Z,32.00
2018-02-24T06:08:54.502Z,36.00
2018-02-24T06:09:54.472Z,44.00
2018-02-24T06:10:54.442Z,48.00
2018-02-24T06:11:54.414Z,60.00
2018-02-24T06:12:54.386Z,68.00
2018-02-24T06:13:54.354Z,80.00
2018-02-24T06:14:54.334Z,88.00
2018-02-24T06:15:54.299Z,104.00
2018-02-24T06:16:54.269Z,120.00
2018-02-24T06:17:54.237Z,132.00
2018-02-24T06:18:54.208Z,148.00
2018-02-24T06:19:54.181Z,168.00
2018-02-24T06:20:54.155Z,184.00
2018-02-24T06:21:54.120Z,204.00
2018-02-24T06:22:54.090Z,224.00
2018-02-24T06:23:54.069Z,244.00
2018-02-24T06:24:54.033Z,268.00
2018-02-24T06:25:54.008Z,292.00
2018-02-24T06:26:53.972Z,316.00
2018-02-24T06:27:53.946Z,344.00
2018-02-24T06:28:53.920Z,376.00
2018-02-24T06:29:53.895Z,412.00
2018-02-24T06:30:53.856Z,448.00
2018-02-24T06:31:53.826Z,488.00
2018-02-24T06:32:53.799Z,532.00
2018-02-24T06:33:53.769Z,572.00
2018-02-24T06:34:53.738Z,612.00
2018-02-24T06:35:53.711Z,656.00
2018-02-24T06:36:53.682Z,704.00
2018-02-24T06:37:53.653Z,748.00
2018-02-24T06:38:53.621Z,788.00
2018-02-24T06:39:53.614Z,828.00
2018-02-24T06:40:53.582Z,872.00
2018-02-24T06:41:53.536Z,924.00
2018-02-24T06:42:53.506Z,976.00
2018-02-24T06:43:53.555Z,1028.00
2018-02-24T06:44:53.447Z,1076.00
2018-02-24T06:45:53.419Z,1124.00
2018-02-24T06:46:53.390Z,1168.00
2018-02-24T06:47:53.358Z,1212.00
2018-02-24T06:48:53.331Z,1260.00
2018-02-24T06:49:53.300Z,1308.00
2018-02-24T06:50:53.271Z,1364.00
2018-02-24T06:51:53.238Z,1416.00
2018-02-24T06:52:53.212Z,1472.00
2018-02-24T06:53:53.189Z,1528.00
2018-02-24T06:54:53.158Z,1584.00
2018-02-24T06:55:53.131Z,1632.00
2018-02-24T06:56:53.096Z,1676.00
2018-02-24T06:57:53.071Z,1724.00
2018-02-24T06:58:53.034Z,1760.00
2018-02-24T06:59:53.007Z,1784.00
2018-02-24T07:00:52.995Z,1812.00
2018-02-24T07:01:52.953Z,1860.00
2018-02-24T07:02:52.923Z,1936.00
2018-02-24T07:03:52.893Z,1992.00
2018-02-24T07:04:52.861Z,2052.00
2018-02-24T07:05:52.832Z,2104.00
2018-02-24T07:06:52.800Z,2176.00
2018-02-24T07:07:52.777Z,2304.00
2018-02-24T07:08:52.749Z,2436.00
2018-02-24T07:09:52.722Z,2520.00
2018-02-24T07:10:52.687Z,2600.00
2018-02-24T07:11:52.656Z,2664.00
2018-02-24T07:12:52.668Z,2652.00
2018-02-24T07:13:52.609Z,2624.00
2018-02-24T07:14:52.569Z,2576.00
2018-02-24T07:15:52.540Z,2612.00
2018-02-24T07:16:52.510Z,2788.00
2018-02-24T07:17:52.490Z,2832.00
2018-02-24T07:18:52.469Z,2844.00
2018-02-24T07:19:52.423Z,2980.00
2018-02-24T07:20:52.394Z,3100.00
2018-02-24T07:21:52.365Z,3192.00
2018-02-24T07:22:52.419Z,3272.00
2018-02-24T07:23:52.311Z,3348.00
2018-02-24T07:24:52.281Z,3408.00
2018-02-24T07:25:52.384Z,3444.00
2018-02-24T07:26:52.232Z,3480.00
2018-02-24T07:27:52.190Z,3524.00
2018-02-24T07:28:52.182Z,3544.00
2018-02-24T07:29:52.134Z,3548.00
2018-02-24T07:30:52.105Z,3588.00
2018-02-24T07:31:52.082Z,3624.00
2018-02-24T07:32:52.055Z,3640.00
2018-02-24T07:33:52.017Z,3668.00
2018-02-24T07:34:51.989Z,3596.00
2018-02-24T07:35:51.964Z,3404.00
2018-02-24T07:36:51.938Z,3320.00
2018-02-24T07:37:51.900Z,3444.00
2018-02-24T07:38:51.873Z,3652.00
2018-02-24T07:39:51.843Z,3780.00
2018-02-24T07:40:51.813Z,3860.00
2018-02-24T07:41:51.796Z,3932.00
2018-02-24T07:42:51.758Z,4008.00
2018-02-24T07:43:51.732Z,4064.00
2018-02-24T07:44:51.699Z,4104.00
2018-02-24T07:45:51.670Z,4140.00
2018-02-24T07:46:51.697Z,4188.00
2018-02-24T07:47:51.616Z,4212.00
2018-02-24T07:48:51.581Z,4252.00
2018-02-24T07:49:51.550Z,4260.00
2018-02-24T07:50:51.526Z,4272.00
2018-02-24T07:51:51.496Z,4252.00
2018-02-24T07:52:51.500Z,4204.00
2018-02-24T07:53:51.535Z,4132.00
2018-02-24T07:54:51.409Z,4100.00
2018-02-24T07:55:51.378Z,4212.00
2018-02-24T07:56:51.348Z,4336.00
2018-02-24T07:57:51.322Z,4408.00
2018-02-24T07:58:51.289Z,4488.00
2018-02-24T07:59:51.261Z,4524.00
2018-02-24T08:00:51.231Z,4596.00
2018-02-24T08:01:51.202Z,4644.00
2018-02-24T08:02:51.179Z,4644.00
2018-02-24T08:03:51.146Z,4672.00
2018-02-24T08:04:51.117Z,4664.00
2018-02-24T08:05:51.098Z,4596.00
2018-02-24T08:06:51.055Z,4448.00
2018-02-24T08:07:51.070Z,4448.00
2018-02-24T08:08:51.000Z,4416.00
2018-02-24T08:09:50.993Z,4464.00
2018-02-24T08:10:51.004Z,4532.00
2018-02-24T08:11:50.910Z,4640.00
2018-02-24T08:12:50.881Z,4792.00
2018-02-24T08:13:50.853Z,4824.00
2018-02-24T08:14:50.842Z,4684.00
2018-02-24T08:15:50.792Z,4600.00
2018-02-24T08:16:50.764Z,4636.00
2018-02-24T08:17:50.733Z,4760.00
2018-02-24T08:18:50.703Z,4896.00
2018-02-24T08:19:50.682Z,4872.00
2018-02-24T08:20:50.645Z,4884.00
2018-02-24T08:21:50.618Z,4892.00
2018-02-24T08:22:50.592Z,4880.00
2018-02-24T08:23:50.558Z,4880.00
2018-02-24T08:24:50.531Z,4868.00
2018-02-24T08:25:50.497Z,4940.00
2018-02-24T08:26:50.484Z,4972.00
2018-02-24T08:27:50.441Z,4988.00
2018-02-24T08:28:50.415Z,4968.00
2018-02-24T08:29:50.381Z,5000.00
2018-02-24T08:30:50.350Z,5044.00
2018-02-24T08:31:50.320Z,5080.00
2018-02-24T08:32:50.295Z,5116.00
2018-02-24T08:33:50.263Z,5156.00
2018-02-24T08:34:50.233Z,5136.00
2018-02-24T08:35:50.202Z,5212.00
2018-02-24T08:36:50.180Z,5268.00
2018-02-24T08:37:50.149Z,5276.00
2018-02-24T08:38:50.123Z,5312.00
2018-02-24T08:39:50.084Z,5316.00
2018-02-24T08:40:50.070Z,5380.00
2018-02-24T08:41:50.045Z,5384.00
2018-02-24T08:42:50.008Z,5380.00
2018-02-24T08:43:49.974Z,5432.00
2018-02-24T08:44:49.941Z,5484.00
2018-02-24T08:45:49.959Z,5540.00
2018-02-24T08:46:49.889Z,5544.00
2018-02-24T08:47:49.852Z,5580.00
2018-02-24T08:48:49.823Z,5644.00
2018-02-24T08:49:49.971Z,5644.00
2018-02-24T08:50:49.768Z,5612.00
2018-02-24T08:51:49.735Z,5632.00
2018-02-24T08:52:49.753Z,5644.00
2018-02-24T08:53:49.679Z,5732.00
2018-02-24T08:54:49.651Z,5804.00
2018-02-24T08:55:49.622Z,5828.00
2018-02-24T08:56:49.587Z,5908.00
2018-02-24T08:57:49.569Z,5944.00
2018-02-24T08:58:49.607Z,5948.00
2018-02-24T08:59:49.508Z,5996.00
2018-02-24T09:00:49.470Z,6100.00
2018-02-24T09:01:49.450Z,6156.00
2018-02-24T09:02:49.415Z,6220.00
2018-02-24T09:03:49.391Z,6256.00
2018-02-24T09:04:49.358Z,6364.00
2018-02-24T09:05:49.336Z,7044.00
2018-02-24T09:06:49.342Z,12836.00
2018-02-24T09:07:49.271Z,25632.00
2018-02-24T09:08:49.242Z,38336.00
2018-02-24T09:09:49.216Z,34272.00
2018-02-24T09:10:49.187Z,43616.00
2018-02-24T09:11:49.158Z,40192.00
2018-02-24T09:12:49.128Z,44256.00
2018-02-24T09:13:49.107Z,27648.00
2018-02-24T09:14:49.075Z,47264.00
2018-02-24T09:15:49.046Z,43232.00
2018-02-24T09:16:49.018Z,49984.00
2018-02-24T09:17:48.992Z,39040.00
2018-02-24T09:18:48.966Z,36992.00
2018-02-24T09:19:48.946Z,53856.00
2018-02-24T09:20:48.936Z,59744.00
2018-02-24T09:21:48.895Z,52992.00
2018-02-24T09:22:48.863Z,47680.00
2018-02-24T09:23:48.939Z,49568.00
2018-02-24T09:24:48.817Z,57472.00
2018-02-24T09:25:48.790Z,58976.00
2018-02-24T09:26:48.769Z,58528.00
2018-02-24T09:27:48.747Z,57984.00
2018-02-24T09:28:48.717Z,51680.00
2018-02-24T09:29:48.694Z,55840.00
2018-02-24T09:30:48.682Z,42848.00
2018-02-24T09:31:48.667Z,49472.00
2018-02-24T09:32:48.623Z,41632.00
2018-02-24T09:33:48.596Z,30944.00
2018-02-24T09:34:48.616Z,35168.00
2018-02-24T09:35:48.558Z,34048.00
2018-02-24T09:36:48.543Z,40672.00
2018-02-24T09:37:48.510Z,40448.00
2018-02-24T09:38:48.539Z,40928.00
2018-02-24T09:39:48.469Z,38080.00
2018-02-24T09:40:48.441Z,35552.00
2018-02-24T09:41:48.421Z,31616.00
2018-02-24T09:42:48.396Z,37344.00
2018-02-24T09:43:48.377Z,35712.00
2018-02-24T09:44:48.356Z,35232.00
2018-02-24T09:45:48.345Z,30528.00
2018-02-24T09:46:48.314Z,29536.00
2018-02-24T09:47:48.291Z,27648.00
2018-02-24T09:48:48.270Z,26304.00
2018-02-24T09:49:48.251Z,28000.00
2018-02-24T09:50:48.234Z,30144.00
2018-02-24T09:51:48.210Z,31808.00
2018-02-24T09:52:48.194Z,34528.00
2018-02-24T09:53:48.271Z,34976.00
2018-02-24T09:54:48.148Z,37440.00
2018-02-24T09:55:48.133Z,34624.00
2018-02-24T09:56:48.155Z,36768.00
2018-02-24T09:57:48.088Z,39232.00
2018-02-24T09:58:48.061Z,36512.00
2018-02-24T09:59:48.086Z,30976.00
2018-02-24T10:00:48.025Z,24736.00
2018-02-24T10:01:48.003Z,26432.00
2018-02-24T10:02:47.997Z,30656.00
2018-02-24T10:03:47.959Z,31136.00
2018-02-24T10:04:47.948Z,30816.00
2018-02-24T10:05:47.922Z,32160.00
2018-02-24T10:06:47.903Z,39744.00
2018-02-24T10:07:47.875Z,46848.00
2018-02-24T10:08:47.859Z,58144.00
2018-02-24T10:09:47.844Z,54176.00
2018-02-24T10:10:47.813Z,54560.00
2018-02-24T10:11:47.794Z,55584.00
2018-02-24T10:12:47.773Z,48192.00
2018-02-24T10:13:47.770Z,53600.00
2018-02-24T10:14:47.733Z,54144.00
2018-02-24T10:15:47.858Z,49760.00
2018-02-24T10:16:47.693Z,44704.00
2018-02-24T10:17:47.677Z,40800.00
2018-02-24T10:18:47.665Z,53056.00
2018-02-24T10:19:47.637Z,46592.00
2018-02-24T10:20:47.619Z,50784.00
2018-02-24T10:21:47.605Z,54816.00
2018-02-24T10:22:47.605Z,51904.00
2018-02-24T10:23:47.704Z,58368.00
2018-02-24T10:24:47.539Z,60256.00
2018-02-24T10:25:47.526Z,56672.00
2018-02-24T10:26:47.513Z,53088.00
2018-02-24T10:27:47.483Z,61120.00
2018-02-24T10:28:47.474Z,61568.00
2018-02-24T10:29:47.474Z,45856.00
2018-02-24T10:30:47.420Z,61440.00
2018-02-24T10:31:47.401Z,61184.00
2018-02-24T10:32:47.385Z,58464.00
2018-02-24T10:33:47.371Z,59008.00
2018-02-24T10:34:47.344Z,61056.00
2018-02-24T10:35:47.328Z,61504.00
2018-02-24T10:36:47.311Z,58208.00
2018-02-24T10:37:47.286Z,60512.00
2018-02-24T10:38:47.264Z,62560.00
2018-02-24T10:39:47.246Z,61952.00
2018-02-24T10:40:47.230Z,59392.00
2018-02-24T10:41:47.206Z,55296.00
2018-02-24T10:42:47.185Z,52832.00
2018-02-24T10:43:47.168Z,55520.00
2018-02-24T10:44:47.146Z,60480.00
2018-02-24T10:45:47.148Z,62112.00
2018-02-24T10:46:47.108Z,60096.00
2018-02-24T10:47:47.089Z,55616.00
2018-02-24T10:48:47.081Z,57664.00
2018-02-24T10:49:47.057Z,47520.00
2018-02-24T10:50:47.034Z,53824.00
2018-02-24T10:51:47.018Z,51296.00
2018-02-24T10:52:47.001Z,16052.00
2018-02-24T10:53:46.982Z,15784.00
2018-02-24T10:54:46.965Z,55072.00
2018-02-24T10:55:46.938Z,46048.00
2018-02-24T10:56:46.923Z,51808.00
2018-02-24T10:57:46.894Z,39136.00
2018-02-24T10:58:46.873Z,52192.00
2018-02-24T10:59:46.862Z,54624.00
2018-02-24T11:00:46.834Z,57632.00
2018-02-24T11:01:46.814Z,53664.00
2018-02-24T11:02:46.794Z,48992.00
2018-02-24T11:03:46.773Z,26400.00
2018-02-24T11:04:46.782Z,31360.00
2018-02-24T11:05:46.735Z,24928.00
2018-02-24T11:06:46.731Z,25856.00
2018-02-24T11:07:46.718Z,22016.00
2018-02-24T11:08:46.673Z,17248.00
2018-02-24T11:09:46.660Z,19360.00
2018-02-24T11:10:46.632Z,20288.00
2018-02-24T11:11:46.614Z,18368.00
2018-02-24T11:12:46.601Z,17312.00
2018-02-24T11:13:46.572Z,20544.00
2018-02-24T11:14:46.555Z,19040.00
2018-02-24T11:15:46.592Z,16712.00
2018-02-24T11:16:46.513Z,15252.00
2018-02-24T11:17:46.502Z,22176.00
2018-02-24T11:18:46.531Z,17696.00
2018-02-24T11:19:46.452Z,20704.00
2018-02-24T11:20:46.430Z,20192.00
2018-02-24T11:21:46.410Z,21056.00
2018-02-24T11:22:46.390Z,24288.00
2018-02-24T11:23:46.363Z,23040.00
2018-02-24T11:24:46.362Z,20000.00
2018-02-24T11:25:46.322Z,13508.00
2018-02-24T11:26:46.302Z,15012.00
2018-02-24T11:27:46.281Z,18656.00
2018-02-24T11:28:46.261Z,22560.00
2018-02-24T11:29:46.241Z,22464.00
2018-02-24T11:30:46.217Z,15660.00
2018-02-24T11:31:46.202Z,18368.00
2018-02-24T11:32:46.179Z,12636.00
2018-02-24T11:33:46.158Z,13632.00
2018-02-24T11:34:46.153Z,15100.00
2018-02-24T11:35:46.120Z,15092.00
2018-02-24T11:36:46.097Z,13292.00
2018-02-24T11:37:46.153Z,13420.00
2018-02-24T11:38:46.053Z,11764.00
2018-02-24T11:39:46.040Z,12232.00
2018-02-24T11:40:46.036Z,12912.00
2018-02-24T11:41:46.006Z,14176.00
2018-02-24T11:42:45.966Z,15052.00
2018-02-24T11:43:45.957Z,14632.00
2018-02-24T11:44:45.926Z,13108.00
2018-02-24T11:45:45.904Z,10440.00
2018-02-24T11:46:45.886Z,11908.00
2018-02-24T11:47:45.869Z,13400.00
2018-02-24T11:48:45.847Z,13656.00
2018-02-24T11:49:45.825Z,15920.00
2018-02-24T11:50:45.795Z,11200.00
2018-02-24T11:51:45.775Z,11260.00
2018-02-24T11:52:45.755Z,11664.00
2018-02-24T11:53:45.732Z,14988.00
2018-02-24T11:54:45.707Z,17312.00
2018-02-24T11:55:45.687Z,15736.00
2018-02-24T11:56:45.673Z,15696.00
2018-02-24T11:57:45.639Z,17824.00
2018-02-24T11:58:45.617Z,13340.00
2018-02-24T11:59:45.596Z,13944.00
2018-02-24T12:00:45.584Z,15648.00
2018-02-24T12:01:45.554Z,17312.00
2018-02-24T12:02:45.526Z,14816.00
2018-02-24T12:03:45.503Z,10220.00
2018-02-24T12:04:45.484Z,11200.00
2018-02-24T12:05:45.464Z,12432.00
2018-02-24T12:06:45.437Z,11792.00
2018-02-24T12:07:45.466Z,11380.00
2018-02-24T12:08:45.393Z,11852.00
2018-02-24T12:09:45.373Z,15044.00
2018-02-24T12:10:45.360Z,12880.00
2018-02-24T12:11:45.323Z,16780.00
2018-02-24T12:12:45.302Z,13156.00
2018-02-24T12:13:45.342Z,12072.00
2018-02-24T12:14:45.254Z,13228.00
2018-02-24T12:15:45.239Z,12884.00
2018-02-24T12:16:45.207Z,15464.00
2018-02-24T12:17:45.183Z,11868.00
2018-02-24T12:18:45.162Z,11332.00
2018-02-24T12:19:45.136Z,14280.00
2018-02-24T12:20:45.114Z,13496.00
2018-02-24T12:21:45.095Z,11692.00
2018-02-24T12:22:45.071Z,10880.00
2018-02-24T12:23:45.051Z,9840.00
2018-02-24T12:24:45.034Z,8928.00
2018-02-24T12:25:45.029Z,9228.00
2018-02-24T12:26:44.983Z,8940.00
2018-02-24T12:27:44.952Z,6860.00
2018-02-24T12:28:44.929Z,7528.00
2018-02-24T12:29:44.904Z,8436.00
2018-02-24T12:30:44.883Z,8736.00
2018-02-24T12:31:44.860Z,7980.00
2018-02-24T12:32:44.844Z,9388.00
2018-02-24T12:33:44.817Z,8748.00